Time;durP1;ratioP1;P1;durP2;ratioP2;P2;SDS_P1;SDS_P2;PMS_P1;PMS_P2;Temp;Humidity;BMP_temperature;BMP_pressure;BME280_temperature;BME280_humidity;BME280_pressure;Samples;Min_cycle;Max_cycle;Signal;HPM_P1;HPM_P2
2021/12/29 00:01:24;;;;;;;;;;;9.20;99.90;;;;;;4289336;33;44459;-80
2021/12/29 00:03:52;;;;;;;;;;;9.20;99.90;;;;;;4289900;33;31258;-81
2021/12/29 00:06:19;;;;;;;;;;;9.20;99.90;;;;;;4276439;33;42894;-81
2021/12/29 00:08:46;;;;;;;;;;;9.20;99.90;;;;;;4275715;33;46004;-80
2021/12/29 00:11:13;;;;;;;;;;;9.20;99.90;;;;;;4275963;33;34170;-81
2021/12/29 00:13:41;;;;;;;;;;;9.20;99.90;;;;;;4288911;33;38737;-81
2021/12/29 00:16:11;;;;;;;;;;;9.20;99.90;;;;;;4264897;33;20085;-81
2021/12/29 00:18:38;;;;;;;;;;;9.20;99.90;;;;;;4289390;33;29831;-81
2021/12/29 00:21:05;;;;;;;;;;;9.20;99.90;;;;;;4276561;33;37971;-81
2021/12/29 00:23:33;;;;;;;;;;;9.20;99.90;;;;;;4290092;33;20018;-81
2021/12/29 00:26:22;;;;;;;;;;;9.20;99.90;;;;;;4279730;33;19999;-81
2021/12/29 00:28:49;;;;;;;;;;;9.20;99.90;;;;;;4276469;33;27119;-81
2021/12/29 00:31:16;;;;;;;;;;;9.20;99.90;;;;;;4276364;33;28786;-80
2021/12/29 00:33:43;;;;;;;;;;;9.20;99.90;;;;;;4276104;33;37147;-80
2021/12/29 00:36:11;;;;;;;;;;;9.20;99.90;;;;;;4276060;33;33591;-81
2021/12/29 00:38:38;;;;;;;;;;;9.20;99.90;;;;;;4275878;33;22804;-81
2021/12/29 00:41:05;;;;;;;;;;;9.10;99.90;;;;;;4277149;33;20408;-81
2021/12/29 00:43:32;;;;;;;;;;;9.20;99.90;;;;;;4275702;33;44638;-81
2021/12/29 00:46:03;;;;;;;;;;;9.20;99.90;;;;;;4276302;33;34490;-81
2021/12/29 00:48:36;;;;;;;;;;;9.10;99.90;;;;;;4276647;33;20011;-81
2021/12/29 00:51:04;;;;;;;;;;;9.10;99.90;;;;;;4263987;33;46542;-81
2021/12/29 00:53:31;;;;;;;;;;;9.20;99.90;;;;;;4275865;33;29572;-81
2021/12/29 00:56:01;;;;;;;;;;;9.10;99.90;;;;;;4289663;33;20087;-81
2021/12/29 00:58:31;;;;;;;;;;;9.10;99.90;;;;;;4289187;33;24701;-81
2021/12/29 01:00:59;;;;;;;;;;;9.10;99.90;;;;;;4275619;33;27778;-81
2021/12/29 01:03:27;;;;;;;;;;;9.10;99.90;;;;;;4275504;33;38642;-81
2021/12/29 01:05:55;;;;;;;;;;;9.10;99.90;;;;;;4275688;33;40606;-82
2021/12/29 01:08:25;;;;;;;;;;;9.10;99.90;;;;;;4275399;33;40932;-81
2021/12/29 01:10:52;;;;;;;;;;;9.10;99.90;;;;;;4288383;33;36826;-81
2021/12/29 01:13:29;;;;;;;;;;;9.10;99.90;;;;;;4275112;33;42399;-80
2021/12/29 01:18:34;;;;;;;;;;;9.10;99.90;;;;;;4275154;33;40097;-81
2021/12/29 01:21:05;;;;;;;;;;;9.10;99.90;;;;;;4276315;33;20024;-81
2021/12/29 01:23:35;;;;;;;;;;;9.10;99.90;;;;;;4275572;33;29874;-81
2021/12/29 01:26:02;;;;;;;;;;;9.10;99.90;;;;;;4263103;33;43649;-81
2021/12/29 01:28:29;;;;;;;;;;;9.10;99.90;;;;;;4262927;33;46187;-81
2021/12/29 01:30:59;;;;;;;;;;;9.10;99.90;;;;;;4263293;33;44733;-81
2021/12/29 01:33:32;;;;;;;;;;;9.10;99.90;;;;;;4275261;33;40681;-81
2021/12/29 01:35:59;;;;;;;;;;;9.10;99.90;;;;;;4275277;33;31206;-81
2021/12/29 01:38:26;;;;;;;;;;;9.10;99.90;;;;;;4276088;33;20024;-81
2021/12/29 01:40:56;;;;;;;;;;;9.10;99.90;;;;;;4276331;33;20032;-81
2021/12/29 01:43:23;;;;;;;;;;;9.10;99.90;;;;;;4274551;33;44365;-81
2021/12/29 01:45:53;;;;;;;;;;;9.10;99.90;;;;;;4287441;33;44638;-81
2021/12/29 01:48:20;;;;;;;;;;;9.10;99.90;;;;;;4275214;33;34578;-81
2021/12/29 01:50:52;;;;;;;;;;;9.10;99.90;;;;;;4274938;33;44521;-81
2021/12/29 01:53:24;;;;;;;;;;;9.10;99.90;;;;;;4276277;33;20093;-80
2021/12/29 01:55:54;;;;;;;;;;;9.10;99.90;;;;;;4289065;33;20011;-81
2021/12/29 01:58:22;;;;;;;;;;;9.10;99.90;;;;;;4287846;33;29706;-80
2021/12/29 02:00:53;;;;;;;;;;;9.10;99.90;;;;;;4288918;33;20062;-81
2021/12/29 02:03:20;;;;;;;;;;;9.00;99.90;;;;;;4276021;33;20007;-81
2021/12/29 02:05:48;;;;;;;;;;;9.00;99.90;;;;;;4264119;33;20044;-81
2021/12/29 02:08:22;;;;;;;;;;;9.10;99.90;;;;;;4275282;33;23682;-81
2021/12/29 02:10:53;;;;;;;;;;;9.10;99.90;;;;;;4274885;33;40840;-81
2021/12/29 02:13:23;;;;;;;;;;;9.00;99.90;;;;;;4275278;33;36232;-81
2021/12/29 02:15:50;;;;;;;;;;;9.10;99.90;;;;;;4287848;33;34106;-81
2021/12/29 02:18:21;;;;;;;;;;;9.10;99.90;;;;;;4262392;33;44825;-81
2021/12/29 02:20:50;;;;;;;;;;;9.10;99.90;;;;;;4274458;33;30666;-82
2021/12/29 02:23:33;;;;;;;;;;;9.00;99.90;;;;;;4262367;33;45552;-81
2021/12/29 02:26:01;;;;;;;;;;;9.10;99.90;;;;;;4274600;33;32555;-81
2021/12/29 02:28:29;;;;;;;;;;;9.00;99.90;;;;;;4274615;33;34287;-81
2021/12/29 02:30:59;;;;;;;;;;;9.00;99.90;;;;;;4263587;33;20024;-81
2021/12/29 02:33:32;;;;;;;;;;;9.10;99.90;;;;;;4263401;33;20035;-81
2021/12/29 02:36:00;;;;;;;;;;;9.10;99.90;;;;;;4288417;33;20006;-82
2021/12/29 02:38:31;;;;;;;;;;;9.00;99.90;;;;;;4288357;33;20443;-81
2021/12/29 02:41:03;;;;;;;;;;;9.10;99.90;;;;;;4263648;33;20434;-82
2021/12/29 02:43:32;;;;;;;;;;;9.00;99.90;;;;;;4263356;33;20439;-81
2021/12/29 02:46:11;;;;;;;;;;;9.00;99.90;;;;;;4263437;33;20072;-82
2021/12/29 02:48:41;;;;;;;;;;;9.00;99.90;;;;;;4287759;33;25520;-81
2021/12/29 02:51:08;;;;;;;;;;;9.10;99.90;;;;;;4262226;33;44881;-82
2021/12/29 02:53:36;;;;;;;;;;;9.00;99.90;;;;;;4273787;33;42961;-81
2021/12/29 02:56:04;;;;;;;;;;;9.10;99.90;;;;;;4288479;33;20010;-81
2021/12/29 02:58:33;;;;;;;;;;;9.00;99.90;;;;;;4287910;33;20046;-82
2021/12/29 03:01:02;;;;;;;;;;;9.00;99.90;;;;;;4286626;33;37012;-81
2021/12/29 03:03:30;;;;;;;;;;;9.00;99.90;;;;;;4273817;33;36772;-82
2021/12/29 03:06:00;;;;;;;;;;;9.10;99.90;;;;;;4275102;33;20014;-81
2021/12/29 03:08:28;;;;;;;;;;;9.00;99.90;;;;;;4287426;33;29017;-81
2021/12/29 03:10:55;;;;;;;;;;;9.00;99.90;;;;;;4275332;33;20364;-81
2021/12/29 03:13:23;;;;;;;;;;;9.00;99.90;;;;;;4275325;33;20014;-81
2021/12/29 03:15:53;;;;;;;;;;;9.00;99.90;;;;;;4274552;33;20011;-81
2021/12/29 03:18:21;;;;;;;;;;;9.10;99.90;;;;;;4287370;33;20400;-81
2021/12/29 03:20:50;;;;;;;;;;;9.00;99.90;;;;;;4288204;33;20042;-81
2021/12/29 03:23:18;;;;;;;;;;;9.00;99.90;;;;;;4287188;33;36478;-82
2021/12/29 03:25:48;;;;;;;;;;;9.00;99.90;;;;;;4274875;33;35409;-81
2021/12/29 03:28:16;;;;;;;;;;;9.00;99.90;;;;;;4262021;33;32158;-81
2021/12/29 03:30:49;;;;;;;;;;;9.00;99.90;;;;;;4288220;33;20049;-82
2021/12/29 03:33:19;;;;;;;;;;;9.00;99.90;;;;;;4274366;33;38113;-81
2021/12/29 03:35:51;;;;;;;;;;;9.00;99.90;;;;;;4274078;33;36622;-81
2021/12/29 03:38:20;;;;;;;;;;;9.00;99.90;;;;;;4274276;33;37893;-82
2021/12/29 03:40:54;;;;;;;;;;;9.00;99.90;;;;;;4274933;33;20023;-82
2021/12/29 03:43:24;;;;;;;;;;;9.00;99.90;;;;;;4287451;33;29820;-82
2021/12/29 03:45:54;;;;;;;;;;;9.00;99.90;;;;;;4286617;33;34970;-81
2021/12/29 03:48:23;;;;;;;;;;;9.00;99.90;;;;;;4274410;33;28740;-83
2021/12/29 03:50:53;;;;;;;;;;;9.00;99.90;;;;;;4261677;33;44807;-82
2021/12/29 03:53:21;;;;;;;;;;;9.00;99.90;;;;;;4274504;33;36370;-81
2021/12/29 03:55:50;;;;;;;;;;;9.00;99.90;;;;;;4286798;33;34580;-81
2021/12/29 03:58:20;;;;;;;;;;;9.00;99.90;;;;;;4273896;33;36043;-81
2021/12/29 04:00:49;;;;;;;;;;;9.00;99.90;;;;;;4274405;33;20262;-81
2021/12/29 04:03:21;;;;;;;;;;;9.00;99.90;;;;;;4274654;33;20021;-82
2021/12/29 04:05:49;;;;;;;;;;;9.00;99.90;;;;;;4275032;33;20082;-81
2021/12/29 04:08:18;;;;;;;;;;;9.00;99.90;;;;;;4274773;33;20018;-81
2021/12/29 04:10:46;;;;;;;;;;;9.00;99.90;;;;;;4286957;33;35459;-82
2021/12/29 04:13:13;;;;;;;;;;;9.00;99.90;;;;;;4275778;33;35167;-81
2021/12/29 04:15:41;;;;;;;;;;;9.00;99.90;;;;;;4277392;33;20019;-81
2021/12/29 04:18:26;;;;;;;;;;;9.00;99.90;;;;;;4276897;33;29922;-82
2021/12/29 04:20:55;;;;;;;;;;;9.00;99.90;;;;;;4264125;33;43047;-82
2021/12/29 04:23:26;;;;;;;;;;;9.00;99.90;;;;;;4277062;33;20011;-81
2021/12/29 04:25:54;;;;;;;;;;;9.00;99.90;;;;;;4265148;33;20003;-81
2021/12/29 04:28:25;;;;;;;;;;;9.00;99.90;;;;;;4289463;33;20018;-81
2021/12/29 04:30:55;;;;;;;;;;;9.00;99.90;;;;;;4265693;33;20363;-82
2021/12/29 04:33:25;;;;;;;;;;;9.00;99.90;;;;;;4289444;33;20018;-81
2021/12/29 04:35:55;;;;;;;;;;;9.00;99.90;;;;;;4264039;33;37900;-81
2021/12/29 04:38:24;;;;;;;;;;;9.00;99.90;;;;;;4276221;33;32170;-81
2021/12/29 04:40:54;;;;;;;;;;;9.00;99.90;;;;;;4275908;33;26213;-82
2021/12/29 04:43:22;;;;;;;;;;;9.00;99.90;;;;;;4290141;33;20007;-82
2021/12/29 04:45:50;;;;;;;;;;;9.00;99.90;;;;;;4290049;33;20446;-82
2021/12/29 04:48:17;;;;;;;;;;;9.00;99.90;;;;;;4276538;33;20032;-82
2021/12/29 04:51:04;;;;;;;;;;;9.00;99.90;;;;;;4264987;33;19998;-82
2021/12/29 04:53:31;;;;;;;;;;;9.00;99.90;;;;;;4263941;33;39717;-82
2021/12/29 04:55:59;;;;;;;;;;;9.00;99.90;;;;;;4263750;33;41594;-82
2021/12/29 04:58:26;;;;;;;;;;;9.00;99.90;;;;;;4275760;33;30203;-82
2021/12/29 05:00:53;;;;;;;;;;;9.00;99.90;;;;;;4275510;33;39444;-82
2021/12/29 05:03:21;;;;;;;;;;;9.00;99.90;;;;;;4275833;33;21402;-82
2021/12/29 05:08:33;;;;;;;;;;;9.00;99.90;;;;;;4288703;33;43009;-82
2021/12/29 05:11:02;;;;;;;;;;;9.00;99.90;;;;;;4275947;33;35084;-82
2021/12/29 05:13:30;;;;;;;;;;;9.00;99.90;;;;;;4263897;33;32652;-82
2021/12/29 05:15:57;;;;;;;;;;;9.00;99.90;;;;;;4275449;33;43912;-82
2021/12/29 05:18:26;;;;;;;;;;;9.00;99.90;;;;;;4275633;33;34508;-82
2021/12/29 05:20:53;;;;;;;;;;;9.00;99.90;;;;;;4289215;33;20007;-82
2021/12/29 05:23:21;;;;;;;;;;;9.00;99.90;;;;;;4274628;33;43187;-82
2021/12/29 05:25:49;;;;;;;;;;;9.00;99.90;;;;;;4275450;33;36301;-82
2021/12/29 05:28:20;;;;;;;;;;;9.00;99.90;;;;;;4288435;33;35203;-82
2021/12/29 05:30:47;;;;;;;;;;;9.00;99.90;;;;;;4275950;33;22745;-82
2021/12/29 05:33:15;;;;;;;;;;;9.00;99.90;;;;;;4274983;33;35783;-82
2021/12/29 05:35:43;;;;;;;;;;;9.00;99.90;;;;;;4263321;33;36073;-82
2021/12/29 05:38:10;;;;;;;;;;;9.00;99.90;;;;;;4263166;33;43519;-82
2021/12/29 05:40:37;;;;;;;;;;;9.00;99.90;;;;;;4275655;33;26570;-81
2021/12/29 05:43:04;;;;;;;;;;;9.00;99.90;;;;;;4275138;33;45077;-82
2021/12/29 05:45:32;;;;;;;;;;;9.00;99.90;;;;;;4287983;33;42908;-82
2021/12/29 05:47:59;;;;;;;;;;;9.00;99.90;;;;;;4287624;33;36673;-82
2021/12/29 05:50:30;;;;;;;;;;;9.00;99.90;;;;;;4275662;33;26585;-82
2021/12/29 05:52:57;;;;;;;;;;;9.00;99.90;;;;;;4274673;33;39888;-82
2021/12/29 05:55:27;;;;;;;;;;;9.00;99.90;;;;;;4275749;33;20010;-82
2021/12/29 05:57:55;;;;;;;;;;;9.00;99.90;;;;;;4263296;33;20291;-81
2021/12/29 06:00:23;;;;;;;;;;;9.00;99.90;;;;;;4274799;33;43697;-82
2021/12/29 06:02:51;;;;;;;;;;;9.00;99.90;;;;;;4274446;33;35777;-82
2021/12/29 06:05:21;;;;;;;;;;;9.00;99.90;;;;;;4287456;33;38595;-81
2021/12/29 06:07:49;;;;;;;;;;;9.00;99.90;;;;;;4274660;33;40493;-82
2021/12/29 06:10:19;;;;;;;;;;;9.00;99.90;;;;;;4274764;33;43471;-82
2021/12/29 06:12:46;;;;;;;;;;;9.00;99.90;;;;;;4287692;33;40209;-82
2021/12/29 06:15:13;;;;;;;;;;;9.00;99.90;;;;;;4274895;33;42477;-82
2021/12/29 06:17:40;;;;;;;;;;;9.00;99.90;;;;;;4274914;33;31802;-82
2021/12/29 06:20:09;;;;;;;;;;;9.00;99.90;;;;;;4274392;33;43658;-82
2021/12/29 06:22:41;;;;;;;;;;;9.00;99.90;;;;;;4288578;33;20048;-82
2021/12/29 06:25:10;;;;;;;;;;;9.00;99.90;;;;;;4263911;33;19999;-82
2021/12/29 06:27:38;;;;;;;;;;;9.00;99.90;;;;;;4275090;33;31175;-82
2021/12/29 06:30:06;;;;;;;;;;;9.00;99.90;;;;;;4262712;33;44495;-82
2021/12/29 06:32:36;;;;;;;;;;;9.00;99.90;;;;;;4275750;33;20014;-82
2021/12/29 06:35:04;;;;;;;;;;;9.00;99.90;;;;;;4287432;33;30722;-82
2021/12/29 06:37:34;;;;;;;;;;;9.00;99.90;;;;;;4274284;33;43857;-81
2021/12/29 06:40:01;;;;;;;;;;;9.00;99.90;;;;;;4288516;33;20020;-82
2021/12/29 06:42:31;;;;;;;;;;;9.00;99.90;;;;;;4275178;33;20028;-82
2021/12/29 06:44:59;;;;;;;;;;;9.00;99.90;;;;;;4274081;33;37193;-82
2021/12/29 06:47:27;;;;;;;;;;;9.00;99.90;;;;;;4274095;33;35257;-82
2021/12/29 06:49:54;;;;;;;;;;;9.00;99.90;;;;;;4274417;33;30701;-82
2021/12/29 06:52:24;;;;;;;;;;;9.00;99.90;;;;;;4274075;33;32933;-82
2021/12/29 06:54:54;;;;;;;;;;;9.00;99.90;;;;;;4287458;33;43327;-82
2021/12/29 06:57:21;;;;;;;;;;;9.00;99.90;;;;;;4274299;33;39740;-82
2021/12/29 06:59:48;;;;;;;;;;;9.00;99.90;;;;;;4274475;33;36369;-82
2021/12/29 07:02:15;;;;;;;;;;;9.00;99.90;;;;;;4262197;33;28023;-82
2021/12/29 07:04:46;;;;;;;;;;;8.90;99.90;;;;;;4274492;33;36778;-82
2021/12/29 07:07:13;;;;;;;;;;;9.00;99.90;;;;;;4287362;33;29331;-82
2021/12/29 07:09:42;;;;;;;;;;;8.90;99.90;;;;;;4275007;33;20014;-82
2021/12/29 07:12:09;;;;;;;;;;;9.00;99.90;;;;;;4262307;33;37564;-82
2021/12/29 07:14:40;;;;;;;;;;;9.00;99.90;;;;;;4263521;33;20375;-82
2021/12/29 07:17:07;;;;;;;;;;;9.00;99.90;;;;;;4274157;33;42265;-82
2021/12/29 07:19:34;;;;;;;;;;;8.90;99.90;;;;;;4274317;33;35861;-82
2021/12/29 07:22:02;;;;;;;;;;;9.00;99.90;;;;;;4273575;33;44896;-82
2021/12/29 07:24:29;;;;;;;;;;;9.00;99.90;;;;;;4273664;33;45140;-82
2021/12/29 07:26:56;;;;;;;;;;;9.00;99.90;;;;;;4262311;33;34136;-82
2021/12/29 07:29:23;;;;;;;;;;;8.90;99.90;;;;;;4287548;33;20007;-82
2021/12/29 07:31:53;;;;;;;;;;;8.90;99.90;;;;;;4274928;33;20014;-82
2021/12/29 07:34:20;;;;;;;;;;;9.00;99.90;;;;;;4274057;33;42769;-82
2021/12/29 07:36:48;;;;;;;;;;;9.00;99.90;;;;;;4286512;33;41389;-81
2021/12/29 07:39:17;;;;;;;;;;;9.00;99.90;;;;;;4262645;33;19998;-82
2021/12/29 07:41:46;;;;;;;;;;;8.90;99.90;;;;;;4286999;33;32992;-82
2021/12/29 07:44:14;;;;;;;;;;;8.90;99.90;;;;;;4262362;33;31816;-82
2021/12/29 07:46:43;;;;;;;;;;;8.90;99.90;;;;;;4276412;33;20024;-83
2021/12/29 07:49:14;;;;;;;;;;;8.90;99.90;;;;;;4277911;33;20025;-82
2021/12/29 07:51:43;;;;;;;;;;;8.90;99.90;;;;;;4289777;33;20042;-82
2021/12/29 07:54:13;;;;;;;;;;;8.90;99.90;;;;;;4276538;33;37816;-82
2021/12/29 07:56:41;;;;;;;;;;;8.90;99.90;;;;;;4264944;33;35795;-82
2021/12/29 07:59:12;;;;;;;;;;;8.90;99.90;;;;;;4276980;33;20027;-82
2021/12/29 08:01:39;;;;;;;;;;;8.90;99.90;;;;;;4289502;33;34410;-82
2021/12/29 08:04:08;;;;;;;;;;;8.90;99.90;;;;;;4264318;33;45251;-81
2021/12/29 08:06:41;;;;;;;;;;;8.90;99.90;;;;;;4277483;33;20018;-82
2021/12/29 08:09:10;;;;;;;;;;;8.90;99.90;;;;;;4276715;33;40536;-81
2021/12/29 08:11:41;;;;;;;;;;;8.90;99.90;;;;;;4264283;33;37337;-82
2021/12/29 08:14:08;;;;;;;;;;;8.90;99.90;;;;;;4265180;33;20925;-82
2021/12/29 08:16:35;;;;;;;;;;;8.90;99.90;;;;;;4264189;33;40271;-82
2021/12/29 08:19:03;;;;;;;;;;;8.80;99.90;;;;;;4276066;33;41104;-82
2021/12/29 08:21:35;;;;;;;;;;;8.90;99.90;;;;;;4290443;33;20040;-82
2021/12/29 08:24:05;;;;;;;;;;;8.80;99.90;;;;;;4290458;33;20033;-82
2021/12/29 08:26:32;;;;;;;;;;;8.80;99.90;;;;;;4276136;33;44456;-82
2021/12/29 08:29:01;;;;;;;;;;;8.80;99.90;;;;;;4275654;33;43387;-82
2021/12/29 08:31:28;;;;;;;;;;;8.80;99.90;;;;;;4289423;33;30168;-82
2021/12/29 08:33:55;;;;;;;;;;;8.80;99.90;;;;;;4289469;33;31679;-82
2021/12/29 08:36:23;;;;;;;;;;;8.80;99.90;;;;;;4264532;33;33819;-82
2021/12/29 08:38:50;;;;;;;;;;;8.80;99.90;;;;;;4263880;33;39032;-82
2021/12/29 08:41:17;;;;;;;;;;;8.80;99.90;;;;;;4276268;33;32283;-82
2021/12/29 08:43:47;;;;;;;;;;;8.80;99.90;;;;;;4288948;33;28911;-82
2021/12/29 08:46:15;;;;;;;;;;;8.80;99.90;;;;;;4275682;33;43259;-82
2021/12/29 08:48:43;;;;;;;;;;;8.80;99.90;;;;;;4288647;33;31137;-82
2021/12/29 08:51:10;;;;;;;;;;;8.80;99.90;;;;;;4275768;33;30668;-82
2021/12/29 08:53:37;;;;;;;;;;;8.80;99.90;;;;;;4264219;33;21566;-83
2021/12/29 08:56:05;;;;;;;;;;;8.80;99.90;;;;;;4276355;33;31987;-82
2021/12/29 08:58:32;;;;;;;;;;;8.80;99.90;;;;;;4288029;33;33489;-82
2021/12/29 09:01:01;;;;;;;;;;;8.70;99.90;;;;;;4276291;33;32624;-82
2021/12/29 09:03:29;;;;;;;;;;;8.80;99.90;;;;;;4261558;33;37742;-81
2021/12/29 09:05:56;;;;;;;;;;;8.80;99.90;;;;;;4273495;33;34431;-82
2021/12/29 09:08:23;;;;;;;;;;;8.80;99.90;;;;;;4274180;33;39225;-82
2021/12/29 09:10:50;;;;;;;;;;;8.80;99.90;;;;;;4273108;33;41809;-82
2021/12/29 09:13:18;;;;;;;;;;;8.80;99.90;;;;;;4273210;33;42358;-82
2021/12/29 09:15:45;;;;;;;;;;;8.80;99.90;;;;;;4261122;33;41788;-82
2021/12/29 09:18:12;;;;;;;;;;;8.80;99.90;;;;;;4273201;33;36093;-82
2021/12/29 09:20:45;;;;;;;;;;;8.70;99.90;;;;;;4273147;33;37792;-82
2021/12/29 09:23:13;;;;;;;;;;;8.70;99.90;;;;;;4274006;33;20054;-82
2021/12/29 09:25:41;;;;;;;;;;;8.70;99.90;;;;;;4272516;33;42905;-82
2021/12/29 09:28:10;;;;;;;;;;;8.80;99.90;;;;;;4274393;33;24320;-81
2021/12/29 09:30:39;;;;;;;;;;;8.70;99.90;;;;;;4260986;33;36593;-81
2021/12/29 09:33:07;;;;;;;;;;;8.70;99.90;;;;;;4273224;33;31235;-81
2021/12/29 09:35:35;;;;;;;;;;;8.70;99.90;;;;;;4272814;33;39483;-82
2021/12/29 09:38:03;;;;;;;;;;;8.70;99.90;;;;;;4273976;33;41710;-81
2021/12/29 09:40:30;;;;;;;;;;;8.70;99.90;;;;;;4272599;33;30615;-82
2021/12/29 09:42:57;;;;;;;;;;;8.70;99.90;;;;;;4272836;33;38303;-81
2021/12/29 09:45:25;;;;;;;;;;;8.70;99.90;;;;;;4273664;33;28465;-81
2021/12/29 09:47:56;;;;;;;;;;;8.70;99.90;;;;;;4274867;33;20011;-81
2021/12/29 09:50:24;;;;;;;;;;;8.70;99.90;;;;;;4273500;33;41649;-82
2021/12/29 09:52:51;;;;;;;;;;;8.70;99.90;;;;;;4273650;33;40991;-81
2021/12/29 09:55:20;;;;;;;;;;;8.70;99.90;;;;;;4273616;33;20015;-81
2021/12/29 09:57:48;;;;;;;;;;;8.70;99.90;;;;;;4272466;33;34619;-81
2021/12/29 10:00:18;;;;;;;;;;;8.70;99.90;;;;;;4260702;33;42164;-81
2021/12/29 10:02:46;;;;;;;;;;;8.70;99.90;;;;;;4282434;33;42278;-81
2021/12/29 10:05:16;;;;;;;;;;;8.70;99.90;;;;;;4287965;33;23443;-81
2021/12/29 10:07:43;;;;;;;;;;;8.70;99.90;;;;;;4274747;33;36977;-81
2021/12/29 10:10:18;;;;;;;;;;;8.70;99.90;;;;;;4275197;33;20011;-81
2021/12/29 10:12:45;;;;;;;;;;;8.70;99.90;;;;;;4274368;33;35035;-81
2021/12/29 10:15:13;;;;;;;;;;;8.80;99.90;;;;;;4262349;33;37533;-82
2021/12/29 10:17:40;;;;;;;;;;;8.70;99.90;;;;;;4263623;33;20042;-82
2021/12/29 10:20:09;;;;;;;;;;;8.80;99.90;;;;;;4274160;33;42875;-82
2021/12/29 10:22:36;;;;;;;;;;;8.70;99.90;;;;;;4274790;33;33559;-81
2021/12/29 10:25:08;;;;;;;;;;;8.80;99.90;;;;;;4287478;33;33809;-82
2021/12/29 10:27:35;;;;;;;;;;;8.80;99.90;;;;;;4274599;33;36141;-82
2021/12/29 10:30:22;;;;;;;;;;;8.80;99.90;;;;;;4274134;33;40861;-82
2021/12/29 10:32:50;;;;;;;;;;;8.80;99.90;;;;;;4262394;33;37829;-82
2021/12/29 10:35:20;;;;;;;;;;;8.80;99.90;;;;;;4262122;33;40185;-82
2021/12/29 10:37:47;;;;;;;;;;;8.80;99.90;;;;;;4262397;33;44629;-81
2021/12/29 10:40:23;;;;;;;;;;;8.80;99.90;;;;;;4286791;33;42627;-82
2021/12/29 10:42:55;;;;;;;;;;;8.80;99.90;;;;;;4274228;33;35812;-82
2021/12/29 10:45:30;;;;;;;;;;;8.80;99.90;;;;;;4262438;33;35418;-82
2021/12/29 10:47:57;;;;;;;;;;;8.80;99.90;;;;;;4274409;33;34666;-81
2021/12/29 10:50:27;;;;;;;;;;;8.80;99.90;;;;;;4274302;33;39102;-81
2021/12/29 10:52:56;;;;;;;;;;;8.80;99.90;;;;;;4274395;33;39105;-82
2021/12/29 10:55:31;;;;;;;;;;;8.80;99.90;;;;;;4262553;33;29227;-82
2021/12/29 10:58:00;;;;;;;;;;;8.80;99.90;;;;;;4274233;33;38171;-81
2021/12/29 11:00:45;;;;;;;;;;;8.80;99.90;;;;;;4276017;33;32975;-82
2021/12/29 11:03:17;;;;;;;;;;;8.90;99.90;;;;;;4263537;33;20003;-81
2021/12/29 11:05:50;;;;;;;;;;;8.80;99.90;;;;;;4275035;33;20013;-82
2021/12/29 11:08:17;;;;;;;;;;;8.90;99.90;;;;;;4275220;33;20010;-81
2021/12/29 11:10:45;;;;;;;;;;;8.90;99.90;;;;;;4274879;33;20029;-81
2021/12/29 11:13:22;;;;;;;;;;;8.90;99.90;;;;;;4288247;33;20075;-81
2021/12/29 11:15:51;;;;;;;;;;;8.90;99.90;;;;;;4274646;33;20002;-82
2021/12/29 11:18:18;;;;;;;;;;;8.90;99.90;;;;;;4263175;33;20013;-81
2021/12/29 11:20:45;;;;;;;;;;;8.90;99.90;;;;;;4263330;33;20007;-81
2021/12/29 11:23:14;;;;;;;;;;;8.90;99.90;;;;;;4291134;33;20071;-82
2021/12/29 11:25:45;;;;;;;;;;;8.90;99.90;;;;;;4265891;33;20436;-81
2021/12/29 11:28:23;;;;;;;;;;;8.90;99.90;;;;;;4278277;33;20079;-81
2021/12/29 11:30:56;;;;;;;;;;;8.90;99.90;;;;;;4278191;33;20074;-81
2021/12/29 11:33:28;;;;;;;;;;;8.90;99.90;;;;;;4290429;33;30666;-81
2021/12/29 11:35:55;;;;;;;;;;;8.90;99.90;;;;;;4276832;33;37976;-81
2021/12/29 11:38:25;;;;;;;;;;;8.90;99.90;;;;;;4276612;33;44264;-81
2021/12/29 11:40:54;;;;;;;;;;;8.90;99.90;;;;;;4264579;33;34637;-81
2021/12/29 11:43:21;;;;;;;;;;;8.90;99.90;;;;;;4277215;33;20011;-81
2021/12/29 11:45:52;;;;;;;;;;;8.90;99.90;;;;;;4276854;33;35153;-81
2021/12/29 11:48:23;;;;;;;;;;;9.00;99.90;;;;;;4289971;33;33739;-82
2021/12/29 11:50:52;;;;;;;;;;;9.00;99.90;;;;;;4264947;33;41008;-81
2021/12/29 11:53:31;;;;;;;;;;;9.00;99.90;;;;;;4265569;33;20407;-81
2021/12/29 11:56:06;;;;;;;;;;;9.00;99.90;;;;;;4277330;33;20412;-81
2021/12/29 11:58:37;;;;;;;;;;;9.00;99.90;;;;;;4277233;33;20020;-84
2021/12/29 12:01:12;;;;;;;;;;;9.00;99.90;;;;;;4277266;33;20055;-81
2021/12/29 12:03:39;;;;;;;;;;;9.00;99.90;;;;;;4265735;33;20025;-81
2021/12/29 12:06:28;;;;;;;;;;;9.00;99.90;;;;;;4265813;33;20017;-82
2021/12/29 12:09:08;;;;;;;;;;;9.00;99.90;;;;;;4264248;33;44566;-81
2021/12/29 12:11:35;;;;;;;;;;;9.00;99.90;;;;;;4289558;33;43579;-81
2021/12/29 12:14:03;;;;;;;;;;;9.00;99.90;;;;;;4275971;33;39046;-81
2021/12/29 12:16:30;;;;;;;;;;;9.00;99.90;;;;;;4276456;33;33294;-82
2021/12/29 12:18:58;;;;;;;;;;;9.00;99.90;;;;;;4276067;33;39086;-81
2021/12/29 12:21:30;;;;;;;;;;;9.00;99.90;;;;;;4276076;33;34890;-81
2021/12/29 12:24:18;;;;;;;;;;;9.00;99.90;;;;;;4277071;33;20377;-81
2021/12/29 12:26:56;;;;;;;;;;;9.00;99.90;;;;;;4277358;33;20017;-81
2021/12/29 12:29:24;;;;;;;;;;;9.10;99.90;;;;;;4277396;33;20040;-81
2021/12/29 12:32:03;;;;;;;;;;;9.10;99.90;;;;;;4288699;33;36516;-80
2021/12/29 12:34:33;;;;;;;;;;;9.10;99.90;;;;;;4264791;33;20010;-81
2021/12/29 12:37:12;;;;;;;;;;;9.10;99.90;;;;;;4276817;33;20003;-82
2021/12/29 12:39:39;;;;;;;;;;;9.10;99.90;;;;;;4289860;33;20044;-81
2021/12/29 12:42:15;;;;;;;;;;;9.10;99.90;;;;;;4276947;33;20005;-82
2021/12/29 12:44:42;;;;;;;;;;;9.10;99.90;;;;;;4289810;33;20076;-81
2021/12/29 12:47:14;;;;;;;;;;;9.10;99.90;;;;;;4276784;33;20014;-81
2021/12/29 12:49:44;;;;;;;;;;;9.10;99.90;;;;;;4265136;33;20040;-81
2021/12/29 12:52:15;;;;;;;;;;;9.10;99.90;;;;;;4289806;33;20011;-81
2021/12/29 12:54:51;;;;;;;;;;;9.20;99.90;;;;;;4289495;33;20109;-81
2021/12/29 12:57:29;;;;;;;;;;;9.20;99.90;;;;;;4276940;33;20010;-81
2021/12/29 13:00:23;;;;;;;;;;;9.20;99.90;;;;;;4276703;33;20020;-81
2021/12/29 13:03:04;;;;;;;;;;;9.20;99.90;;;;;;4273961;33;27303;-82
2021/12/29 13:05:34;;;;;;;;;;;9.20;99.90;;;;;;4263918;33;46787;-82
2021/12/29 13:08:05;;;;;;;;;;;9.20;99.90;;;;;;4264892;33;20461;-81
2021/12/29 13:10:34;;;;;;;;;;;9.20;99.90;;;;;;4289814;33;20002;-81
2021/12/29 13:13:09;;;;;;;;;;;9.20;99.90;;;;;;4276824;33;20010;-81
2021/12/29 13:15:42;;;;;;;;;;;9.20;99.90;;;;;;4276636;33;20027;-81
2021/12/29 13:18:12;;;;;;;;;;;9.20;99.90;;;;;;4288683;33;31379;-81
2021/12/29 13:20:39;;;;;;;;;;;9.30;99.90;;;;;;4263563;33;47052;-81
2021/12/29 13:23:08;;;;;;;;;;;9.30;99.90;;;;;;4264511;33;20045;-81
2021/12/29 13:25:37;;;;;;;;;;;9.30;99.90;;;;;;4264654;33;20013;-82
2021/12/29 13:28:12;;;;;;;;;;;9.30;99.90;;;;;;4275933;33;20069;-81
2021/12/29 13:30:44;;;;;;;;;;;9.30;99.90;;;;;;4275566;33;33457;-81
2021/12/29 13:33:14;;;;;;;;;;;9.30;99.90;;;;;;4288455;33;42653;-81
2021/12/29 13:35:43;;;;;;;;;;;9.30;99.90;;;;;;4288939;33;20062;-81
2021/12/29 13:38:10;;;;;;;;;;;9.30;99.90;;;;;;4264064;33;19994;-82
2021/12/29 13:40:39;;;;;;;;;;;9.30;99.90;;;;;;4276596;33;20029;-81
2021/12/29 13:43:11;;;;;;;;;;;9.30;99.90;;;;;;4275216;33;33264;-81
2021/12/29 13:45:39;;;;;;;;;;;9.30;99.90;;;;;;4275214;33;27015;-81
2021/12/29 13:48:12;;;;;;;;;;;9.30;99.90;;;;;;4264156;33;20002;-80
2021/12/29 13:50:41;;;;;;;;;;;9.30;99.90;;;;;;4275456;33;28904;-81
2021/12/29 13:53:09;;;;;;;;;;;9.30;99.90;;;;;;4275072;33;28323;-81
2021/12/29 13:55:42;;;;;;;;;;;9.40;99.90;;;;;;4289556;33;20404;-81
2021/12/29 13:58:13;;;;;;;;;;;9.30;99.90;;;;;;4275521;33;29582;-80
2021/12/29 14:00:43;;;;;;;;;;;9.30;99.90;;;;;;4264310;33;20007;-81
2021/12/29 14:03:11;;;;;;;;;;;9.30;99.90;;;;;;4275512;33;20025;-80
2021/12/29 14:05:40;;;;;;;;;;;9.30;99.90;;;;;;4288652;33;20047;-81
2021/12/29 14:08:11;;;;;;;;;;;9.30;99.90;;;;;;4275836;33;20412;-81
2021/12/29 14:10:47;;;;;;;;;;;9.30;99.90;;;;;;4287773;33;35588;-81
2021/12/29 14:13:18;;;;;;;;;;;9.30;99.90;;;;;;4275185;33;29009;-81
2021/12/29 14:15:49;;;;;;;;;;;9.30;99.90;;;;;;4263203;33;20038;-81
2021/12/29 14:18:21;;;;;;;;;;;9.40;99.90;;;;;;4274652;33;25846;-81
2021/12/29 14:20:53;;;;;;;;;;;9.40;99.90;;;;;;4275407;33;20011;-83
2021/12/29 14:23:30;;;;;;;;;;;9.40;99.90;;;;;;4275846;33;20012;-84
2021/12/29 14:26:07;;;;;;;;;;;9.40;99.90;;;;;;4263723;33;20420;-83
2021/12/29 14:28:34;;;;;;;;;;;9.40;99.90;;;;;;4275480;33;22820;-82
2021/12/29 14:31:09;;;;;;;;;;;9.40;99.90;;;;;;4274822;33;21073;-83
2021/12/29 14:33:40;;;;;;;;;;;9.40;99.90;;;;;;4275726;33;19998;-83
2021/12/29 14:36:11;;;;;;;;;;;9.40;99.90;;;;;;4264057;33;19994;-83
2021/12/29 14:38:47;;;;;;;;;;;9.40;99.90;;;;;;4263961;33;20002;-82
2021/12/29 14:41:19;;;;;;;;;;;9.40;99.90;;;;;;4275538;33;20021;-83
2021/12/29 14:43:47;;;;;;;;;;;9.40;99.90;;;;;;4262608;33;39508;-83
2021/12/29 14:46:21;;;;;;;;;;;9.40;99.90;;;;;;4263391;33;19998;-83
2021/12/29 14:48:56;;;;;;;;;;;9.40;99.90;;;;;;4263198;33;20450;-83
2021/12/29 14:51:30;;;;;;;;;;;9.40;99.90;;;;;;4274445;33;39448;-83